createdAt,value
2023-04-15T00:00:07.293Z,39.30
2023-04-15T00:00:17.342Z,39.00
2023-04-15T00:00:27.394Z,39.00
2023-04-15T00:00:37.442Z,39.70
2023-04-15T00:00:47.497Z,40.90
2023-04-15T00:00:57.570Z,37.90
2023-04-15T00:01:07.656Z,37.10
2023-04-15T00:01:17.693Z,36.70
2023-04-15T00:01:27.755Z,37.60
2023-04-15T00:01:37.839Z,38.20
2023-04-15T00:01:47.963Z,37.80
2023-04-15T00:01:58.079Z,37.90
2023-04-15T00:02:08.212Z,38.40
2023-04-15T00:02:18.223Z,38.70
2023-04-15T00:02:28.342Z,41.00
2023-04-15T00:02:38.431Z,41.00
2023-04-15T00:02:48.504Z,42.30
2023-04-15T00:02:58.707Z,41.30
2023-04-15T00:03:08.600Z,41.20
2023-04-15T00:03:18.684Z,42.50
2023-04-15T00:03:28.661Z,43.50
2023-04-15T00:03:38.731Z,46.10
2023-04-15T00:03:48.812Z,44.40
2023-04-15T00:03:58.848Z,42.10
2023-04-15T00:04:08.823Z,38.40
2023-04-15T00:04:18.882Z,38.10
2023-04-15T00:04:28.929Z,39.10
2023-04-15T00:04:38.914Z,39.40
2023-04-15T00:04:49.061Z,37.70
2023-04-15T00:04:58.986Z,38.40
2023-04-15T00:05:09.047Z,39.00
2023-04-15T00:05:19.097Z,41.70
2023-04-15T00:05:29.153Z,39.80
2023-04-15T00:05:39.216Z,40.30
2023-04-15T00:05:49.254Z,40.30
2023-04-15T00:05:59.292Z,40.40
2023-04-15T00:06:09.353Z,39.70
2023-04-15T00:06:19.415Z,38.30
2023-04-15T00:06:29.446Z,39.10
2023-04-15T00:06:39.497Z,39.60
2023-04-15T00:06:49.564Z,40.20
2023-04-15T00:06:59.624Z,41.10
2023-04-15T00:07:09.667Z,40.10
2023-04-15T00:07:19.719Z,41.30
2023-04-15T00:07:29.819Z,41.10
2023-04-15T00:07:39.881Z,41.10
2023-04-15T00:07:49.937Z,40.30
2023-04-15T00:07:59.988Z,39.30
2023-04-15T00:08:10.042Z,40.40
2023-04-15T00:08:20.102Z,41.80
2023-04-15T00:08:30.170Z,41.90
2023-04-15T00:08:40.193Z,40.50
2023-04-15T00:08:50.241Z,38.30
2023-04-15T00:09:00.463Z,39.00
2023-04-15T00:09:10.321Z,39.00
2023-04-15T00:09:20.386Z,39.60
2023-04-15T00:09:30.428Z,39.80
2023-04-15T00:09:40.477Z,42.20
2023-04-15T00:09:50.520Z,43.00
2023-04-15T00:10:00.588Z,43.80
2023-04-15T00:10:10.631Z,43.10
2023-04-15T00:10:20.684Z,42.00
2023-04-15T00:10:30.807Z,42.40
2023-04-15T00:10:40.860Z,40.80
2023-04-15T00:10:50.916Z,42.50
2023-04-15T00:11:00.962Z,41.60
2023-04-15T00:11:11.041Z,41.80
2023-04-15T00:11:21.093Z,41.90
2023-04-15T00:11:31.153Z,41.30
2023-04-15T00:11:41.191Z,43.00
2023-04-15T00:11:51.264Z,42.00
2023-04-15T00:12:01.312Z,42.70
2023-04-15T00:12:11.375Z,42.10
2023-04-15T00:12:21.424Z,41.80
2023-04-15T00:12:31.485Z,41.40
2023-04-15T00:12:41.529Z,40.30
2023-04-15T00:12:51.580Z,39.70
2023-04-15T00:13:01.613Z,39.80
2023-04-15T00:13:11.672Z,40.30
2023-04-15T00:13:21.728Z,41.60
2023-04-15T00:13:31.763Z,40.50
2023-04-15T00:13:41.817Z,39.80
2023-04-15T00:13:51.864Z,39.90
2023-04-15T00:14:01.917Z,44.80
2023-04-15T00:14:11.970Z,45.40
2023-04-15T00:14:22.045Z,44.30
2023-04-15T00:14:32.090Z,41.60
2023-04-15T00:14:42.143Z,42.10
2023-04-15T00:14:52.188Z,43.30
2023-04-15T00:15:02.228Z,43.50
2023-04-15T00:15:12.308Z,42.70
2023-04-15T00:15:22.358Z,42.10
2023-04-15T00:15:32.401Z,41.50
2023-04-15T00:15:42.452Z,42.90
2023-04-15T00:15:52.518Z,42.90
2023-04-15T00:16:02.558Z,42.80
2023-04-15T00:16:12.630Z,43.30
2023-04-15T00:16:22.726Z,43.80
2023-04-15T00:16:32.785Z,43.70
2023-04-15T00:16:42.862Z,43.40
2023-04-15T00:16:52.910Z,44.00
2023-04-15T00:17:03.069Z,43.80
2023-04-15T00:17:13.101Z,43.20
2023-04-15T00:17:23.196Z,44.30
2023-04-15T00:17:33.223Z,45.20
2023-04-15T00:17:43.308Z,45.10
2023-04-15T00:17:53.407Z,45.60
2023-04-15T00:18:03.454Z,45.80
2023-04-15T00:18:13.490Z,45.50
2023-04-15T00:18:23.561Z,44.30
2023-04-15T00:18:33.610Z,42.90
2023-04-15T00:18:43.667Z,43.70
2023-04-15T00:18:53.732Z,43.10
2023-04-15T00:19:03.779Z,44.00
2023-04-15T00:19:13.851Z,43.00
2023-04-15T00:19:23.907Z,41.30
2023-04-15T00:19:33.960Z,40.50
2023-04-15T00:19:43.998Z,40.30
2023-04-15T00:19:54.034Z,41.70
2023-04-15T00:20:04.093Z,42.00
2023-04-15T00:20:14.143Z,42.10
2023-04-15T00:20:24.199Z,42.50
2023-04-15T00:20:34.259Z,42.80
2023-04-15T00:20:44.328Z,42.70
2023-04-15T00:20:54.360Z,40.90
2023-04-15T00:21:04.406Z,41.10
2023-04-15T00:21:14.467Z,42.60
2023-04-15T00:21:24.520Z,43.50
2023-04-15T00:21:34.574Z,43.10
2023-04-15T00:21:44.634Z,43.10
2023-04-15T00:21:54.680Z,42.40
2023-04-15T00:22:04.715Z,42.20
2023-04-15T00:22:14.771Z,41.80
2023-04-15T00:22:24.815Z,45.00
2023-04-15T00:22:34.867Z,44.40
2023-04-15T00:22:44.930Z,46.00
2023-04-15T00:22:55.011Z,44.70
2023-04-15T00:23:05.046Z,44.50
2023-04-15T00:23:15.101Z,42.50
2023-04-15T00:23:25.163Z,41.50
2023-04-15T00:23:35.233Z,41.80
2023-04-15T00:23:45.283Z,40.40
2023-04-15T00:23:55.337Z,41.20
2023-04-15T00:24:05.397Z,42.00
2023-04-15T00:24:15.477Z,44.50
2023-04-15T00:24:25.535Z,43.60
2023-04-15T00:24:35.590Z,43.10
2023-04-15T00:24:45.659Z,44.50
2023-04-15T00:24:55.707Z,44.80
2023-04-15T00:25:05.771Z,44.90
2023-04-15T00:25:15.841Z,42.10
2023-04-15T00:25:25.907Z,42.00
2023-04-15T00:25:35.952Z,41.00
2023-04-15T00:25:46.003Z,40.50
2023-04-15T00:25:56.054Z,41.80
2023-04-15T00:26:06.112Z,44.30
2023-04-15T00:26:16.170Z,45.50
2023-04-15T00:26:26.223Z,43.30
2023-04-15T00:26:36.279Z,41.80
2023-04-15T00:26:46.328Z,43.00
2023-04-15T00:26:56.377Z,45.30
2023-04-15T00:27:06.391Z,45.60
2023-04-15T00:27:16.396Z,44.00
2023-04-15T00:27:26.394Z,42.80
2023-04-15T00:27:36.400Z,43.40
2023-04-15T00:27:46.395Z,42.70
2023-04-15T00:27:56.410Z,43.20
2023-04-15T00:28:06.405Z,43.60
2023-04-15T00:28:16.412Z,45.10
2023-04-15T00:28:26.438Z,46.30
2023-04-15T00:28:36.443Z,45.50
2023-04-15T00:28:46.439Z,46.20
2023-04-15T00:28:56.447Z,46.40
2023-04-15T00:29:06.496Z,47.40
2023-04-15T00:29:16.529Z,46.40
2023-04-15T00:29:26.693Z,44.50
2023-04-15T00:29:36.720Z,43.00
2023-04-15T00:29:46.836Z,42.30
2023-04-15T00:29:56.860Z,43.30
2023-04-15T00:30:06.856Z,43.80
2023-04-15T00:30:16.916Z,44.20
2023-04-15T00:30:26.945Z,44.00
2023-04-15T00:30:36.970Z,44.90
2023-04-15T00:30:46.983Z,45.50
2023-04-15T00:30:57.004Z,44.80
2023-04-15T00:31:07.014Z,44.00
2023-04-15T00:31:17.179Z,44.30
2023-04-15T00:31:27.090Z,44.30
2023-04-15T00:31:37.068Z,41.70
2023-04-15T00:31:47.090Z,41.00
2023-04-15T00:31:57.121Z,41.70
2023-04-15T00:32:07.141Z,44.20
2023-04-15T00:32:17.170Z,44.10
2023-04-15T00:32:27.266Z,45.60
2023-04-15T00:32:37.307Z,46.20
2023-04-15T00:32:47.317Z,45.00
2023-04-15T00:32:57.298Z,44.60
2023-04-15T00:33:07.308Z,43.70
2023-04-15T00:33:17.304Z,43.80
2023-04-15T00:33:27.467Z,45.00
2023-04-15T00:33:37.484Z,45.50
2023-04-15T00:33:47.516Z,47.00
2023-04-15T00:33:57.509Z,45.10
2023-04-15T00:34:07.540Z,43.00
2023-04-15T00:34:17.603Z,42.20
2023-04-15T00:34:27.626Z,42.30
2023-04-15T00:34:37.652Z,43.00
2023-04-15T00:34:47.667Z,43.80
2023-04-15T00:34:57.673Z,43.80
2023-04-15T00:35:07.694Z,44.60
2023-04-15T00:35:17.694Z,45.70
2023-04-15T00:35:27.749Z,47.40
2023-04-15T00:35:37.755Z,49.10
2023-04-15T00:35:47.761Z,56.50
2023-04-15T00:35:57.773Z,65.40
2023-04-15T00:36:07.812Z,68.80
2023-04-15T00:36:17.823Z,66.30
2023-04-15T00:36:27.808Z,59.80
2023-04-15T00:36:37.819Z,56.40
2023-04-15T00:36:47.839Z,52.30
2023-04-15T00:36:57.874Z,50.00
2023-04-15T00:37:07.898Z,49.20
2023-04-15T00:37:17.908Z,46.10
2023-04-15T00:37:27.957Z,46.00
2023-04-15T00:37:38.013Z,47.20
2023-04-15T00:37:48.038Z,49.00
2023-04-15T00:37:58.043Z,49.80
2023-04-15T00:38:08.064Z,48.60
2023-04-15T00:38:18.079Z,48.80
2023-04-15T00:38:28.100Z,48.30
2023-04-15T00:38:38.111Z,48.70
2023-04-15T00:38:48.108Z,48.80
2023-04-15T00:38:58.256Z,49.20
2023-04-15T00:39:08.135Z,48.30
2023-04-15T00:39:18.176Z,48.00
2023-04-15T00:39:28.210Z,48.80
2023-04-15T00:39:38.227Z,48.90
2023-04-15T00:39:48.243Z,48.00
2023-04-15T00:39:58.256Z,48.40
2023-04-15T00:40:08.283Z,48.90
2023-04-15T00:40:18.298Z,47.90
2023-04-15T00:40:28.311Z,45.60
2023-04-15T00:40:38.415Z,45.80
2023-04-15T00:40:48.456Z,47.40
2023-04-15T00:40:58.480Z,48.30
2023-04-15T00:41:08.513Z,46.80
2023-04-15T00:41:18.504Z,47.10
2023-04-15T00:41:28.497Z,46.10
2023-04-15T00:41:38.659Z,45.80
2023-04-15T00:41:48.711Z,43.50
2023-04-15T00:41:58.726Z,43.90
2023-04-15T00:42:08.755Z,45.70
2023-04-15T00:42:18.780Z,48.30
2023-04-15T00:42:28.802Z,48.20
2023-04-15T00:42:38.824Z,49.30
2023-04-15T00:42:48.841Z,46.30
2023-04-15T00:42:58.877Z,47.50
2023-04-15T00:43:08.939Z,45.60
2023-04-15T00:43:18.937Z,48.40
2023-04-15T00:43:28.945Z,49.40
2023-04-15T00:43:38.950Z,52.30
2023-04-15T00:43:48.978Z,50.50
2023-04-15T00:43:58.982Z,48.90
2023-04-15T00:44:09.017Z,45.70
2023-04-15T00:44:19.049Z,47.00
2023-04-15T00:44:29.055Z,48.10
2023-04-15T00:44:39.067Z,48.40
2023-04-15T00:44:49.082Z,48.50
2023-04-15T00:44:59.160Z,48.10
2023-04-15T00:45:09.189Z,47.60
2023-04-15T00:45:19.213Z,47.20
2023-04-15T00:45:29.307Z,47.10
2023-04-15T00:45:39.322Z,48.50
2023-04-15T00:45:49.335Z,47.60
2023-04-15T00:45:59.363Z,45.50
2023-04-15T00:46:09.418Z,45.50
2023-04-15T00:46:19.454Z,46.30
2023-04-15T00:46:29.442Z,47.40
2023-04-15T00:46:39.467Z,46.90
2023-04-15T00:46:49.521Z,47.80
2023-04-15T00:46:59.543Z,47.70
2023-04-15T00:47:09.591Z,47.90
2023-04-15T00:47:19.591Z,46.50
2023-04-15T00:47:29.611Z,47.80
2023-04-15T00:47:39.602Z,47.50
2023-04-15T00:47:49.652Z,47.80
2023-04-15T00:47:59.679Z,45.90
2023-04-15T00:48:09.684Z,47.10
2023-04-15T00:48:19.685Z,48.10
2023-04-15T00:48:29.687Z,48.90
2023-04-15T00:48:39.690Z,48.20
2023-04-15T00:48:49.714Z,48.40
2023-04-15T00:48:59.968Z,49.30
2023-04-15T00:49:09.733Z,48.40
2023-04-15T00:49:19.731Z,48.70
2023-04-15T00:49:29.740Z,49.00
2023-04-15T00:49:39.731Z,50.30
2023-04-15T00:49:49.732Z,50.00
2023-04-15T00:49:59.722Z,48.40
2023-04-15T00:50:19.843Z,48.00
2023-04-15T00:50:29.865Z,48.70
2023-04-15T00:50:39.883Z,48.80
2023-04-15T00:50:49.909Z,49.90
2023-04-15T00:50:59.949Z,49.60
2023-04-15T00:51:10.001Z,55.10
2023-04-15T00:51:20.018Z,59.10
2023-04-15T00:51:30.060Z,61.50
2023-04-15T00:51:40.106Z,56.80
2023-04-15T00:51:50.152Z,54.80
2023-04-15T00:52:00.219Z,54.90
2023-04-15T00:52:10.252Z,56.50
2023-04-15T00:52:20.270Z,54.30
2023-04-15T00:52:30.336Z,53.20
2023-04-15T00:52:40.354Z,51.60
2023-04-15T00:52:50.391Z,50.90
2023-04-15T00:53:00.440Z,50.50
2023-04-15T00:53:10.512Z,49.90
2023-04-15T00:53:20.571Z,50.10
2023-04-15T00:53:30.605Z,48.50
2023-04-15T00:53:40.654Z,48.80
2023-04-15T00:53:50.718Z,50.10
2023-04-15T00:54:00.775Z,51.60
2023-04-15T00:54:10.867Z,53.50
2023-04-15T00:54:20.911Z,52.10
2023-04-15T00:54:30.976Z,54.20
2023-04-15T00:54:41.028Z,52.90
2023-04-15T00:54:51.073Z,56.30
2023-04-15T00:55:01.144Z,54.50
2023-04-15T00:55:11.165Z,54.50
2023-04-15T00:55:21.208Z,54.80
2023-04-15T00:55:31.282Z,55.50
2023-04-15T00:55:41.335Z,54.00
2023-04-15T00:55:51.388Z,53.80
2023-04-15T00:56:01.433Z,51.60
2023-04-15T00:56:11.471Z,51.60
2023-04-15T00:56:21.576Z,50.10
2023-04-15T00:56:31.617Z,50.60
2023-04-15T00:56:41.664Z,51.10
2023-04-15T00:56:51.727Z,49.80
2023-04-15T00:57:01.847Z,50.30
2023-04-15T00:57:11.773Z,49.20
2023-04-15T00:57:21.816Z,48.20
2023-04-15T00:57:31.865Z,49.30
2023-04-15T00:57:41.922Z,48.10
2023-04-15T00:57:51.965Z,49.20
2023-04-15T00:58:02.013Z,49.70
2023-04-15T00:58:12.064Z,51.30
2023-04-15T00:58:22.102Z,51.30
2023-04-15T00:58:32.141Z,49.80
2023-04-15T00:58:42.182Z,49.60
2023-04-15T00:58:52.208Z,51.00
2023-04-15T00:59:02.509Z,51.80
2023-04-15T00:59:12.409Z,52.30
2023-04-15T00:59:22.467Z,51.10
2023-04-15T00:59:32.491Z,51.30
2023-04-15T00:59:42.531Z,51.40
2023-04-15T00:59:52.563Z,52.90
2023-04-15T01:00:02.657Z,52.90
2023-04-15T01:00:12.647Z,49.60
2023-04-15T01:00:22.698Z,51.60
2023-04-15T01:00:32.768Z,52.30
2023-04-15T01:00:42.800Z,54.00
2023-04-15T01:00:52.854Z,51.50
2023-04-15T01:01:02.901Z,48.90
2023-04-15T01:01:13.017Z,48.30
2023-04-15T01:01:23.090Z,48.20
2023-04-15T01:01:33.220Z,49.70
2023-04-15T01:01:43.200Z,51.70
2023-04-15T01:01:53.322Z,52.20
2023-04-15T01:02:03.363Z,53.10
2023-04-15T01:02:13.403Z,52.20
2023-04-15T01:02:23.435Z,51.60
2023-04-15T01:02:33.556Z,49.70
2023-04-15T01:02:43.468Z,49.60
2023-04-15T01:02:53.520Z,47.70
2023-04-15T01:03:03.599Z,45.80
2023-04-15T01:03:13.609Z,45.50
2023-04-15T01:03:23.921Z,46.90
2023-04-15T01:03:33.835Z,50.60
2023-04-15T01:03:43.835Z,51.50
2023-04-15T01:03:53.893Z,51.00
2023-04-15T01:04:04.017Z,50.20
2023-04-15T01:04:14.020Z,49.50
2023-04-15T01:04:23.964Z,48.80
2023-04-15T01:04:34.126Z,47.00
2023-04-15T01:04:44.183Z,47.70
2023-04-15T01:04:54.238Z,50.10
2023-04-15T01:05:04.284Z,50.70
2023-04-15T01:05:14.336Z,51.60
2023-04-15T01:05:24.383Z,50.40
2023-04-15T01:05:34.466Z,50.70
2023-04-15T01:05:44.545Z,48.60
2023-04-15T01:05:54.605Z,48.80
2023-04-15T01:06:04.665Z,48.70
2023-04-15T01:06:14.731Z,47.80
2023-04-15T01:06:24.767Z,47.10
2023-04-15T01:06:34.802Z,49.10
2023-04-15T01:06:44.885Z,52.10
2023-04-15T01:06:54.930Z,51.30
2023-04-15T01:07:04.977Z,51.60
2023-04-15T01:07:15.013Z,50.30
2023-04-15T01:07:25.068Z,51.60
2023-04-15T01:07:35.111Z,50.70
2023-04-15T01:07:45.170Z,50.30
2023-04-15T01:07:55.206Z,51.50
2023-04-15T01:08:05.239Z,51.20
2023-04-15T01:08:15.298Z,53.60
2023-04-15T01:08:25.337Z,52.70
2023-04-15T01:08:35.376Z,55.30
2023-04-15T01:08:45.415Z,53.10
2023-04-15T01:08:55.463Z,52.60
2023-04-15T01:09:05.507Z,49.60
2023-04-15T01:09:15.545Z,50.70
2023-04-15T01:09:25.574Z,50.10
2023-04-15T01:09:35.638Z,52.60
2023-04-15T01:09:45.702Z,53.30
2023-04-15T01:09:55.741Z,52.00
2023-04-15T01:10:05.777Z,52.00
2023-04-15T01:10:15.800Z,51.20
2023-04-15T01:10:25.839Z,52.10
2023-04-15T01:10:35.867Z,51.40
2023-04-15T01:10:45.898Z,51.10
2023-04-15T01:10:55.930Z,51.10
2023-04-15T01:11:05.978Z,52.00
2023-04-15T01:11:16.024Z,52.00
2023-04-15T01:11:26.055Z,52.00
2023-04-15T01:11:36.101Z,51.40
2023-04-15T01:11:46.179Z,50.90
2023-04-15T01:11:56.213Z,51.20
2023-04-15T01:12:06.258Z,53.30
2023-04-15T01:12:16.296Z,53.60
2023-04-15T01:12:26.340Z,53.50
2023-04-15T01:12:36.376Z,50.90
2023-04-15T01:12:46.446Z,53.50
2023-04-15T01:12:56.471Z,54.40
2023-04-15T01:13:06.532Z,55.90
2023-04-15T01:13:16.556Z,55.70
2023-04-15T01:13:26.613Z,53.90
2023-04-15T01:13:36.661Z,52.20
2023-04-15T01:13:46.702Z,51.60
2023-04-15T01:13:56.756Z,51.50
2023-04-15T01:14:06.791Z,52.00
2023-04-15T01:14:16.828Z,52.60
2023-04-15T01:14:26.870Z,54.30
2023-04-15T01:14:36.937Z,54.40
2023-04-15T01:14:46.980Z,52.60
2023-04-15T01:14:57.043Z,51.60
2023-04-15T01:15:07.096Z,51.80
2023-04-15T01:15:17.138Z,51.90
2023-04-15T01:15:27.185Z,53.30
2023-04-15T01:15:37.230Z,52.70
2023-04-15T01:15:47.323Z,51.90
2023-04-15T01:15:57.377Z,52.20
2023-04-15T01:16:07.490Z,53.30
2023-04-15T01:16:17.552Z,53.80
2023-04-15T01:16:27.708Z,51.80
2023-04-15T01:16:37.627Z,51.30
2023-04-15T01:16:47.690Z,51.50
2023-04-15T01:16:57.802Z,53.00
2023-04-15T01:17:07.845Z,53.50
2023-04-15T01:17:17.897Z,52.70
2023-04-15T01:17:27.992Z,53.70
2023-04-15T01:17:38.112Z,53.50
2023-04-15T01:17:48.184Z,54.10
2023-04-15T01:17:58.264Z,53.80
2023-04-15T01:18:08.308Z,52.70
2023-04-15T01:18:18.359Z,54.00
2023-04-15T01:18:28.421Z,52.00
2023-04-15T01:18:38.476Z,53.20
2023-04-15T01:18:48.535Z,52.60
2023-04-15T01:18:58.909Z,54.50
2023-04-15T01:19:08.636Z,53.10
2023-04-15T01:19:18.692Z,52.10
2023-04-15T01:19:28.739Z,52.20
2023-04-15T01:19:38.781Z,52.40
2023-04-15T01:19:48.828Z,51.90
2023-04-15T01:19:58.868Z,51.10
2023-04-15T01:20:08.933Z,53.90
2023-04-15T01:20:18.974Z,53.80
2023-04-15T01:20:29.042Z,54.40
2023-04-15T01:20:39.085Z,51.30
2023-04-15T01:20:49.132Z,53.40
2023-04-15T01:20:59.188Z,54.50
2023-04-15T01:21:09.233Z,56.20
2023-04-15T01:21:19.306Z,55.80
2023-04-15T01:21:29.336Z,54.40
2023-04-15T01:21:39.386Z,54.20
2023-04-15T01:21:49.476Z,54.50
2023-04-15T01:21:59.524Z,54.80
2023-04-15T01:22:09.575Z,54.70
2023-04-15T01:22:19.643Z,55.50
2023-04-15T01:22:29.684Z,55.00
2023-04-15T01:22:39.733Z,56.50
2023-04-15T01:22:49.792Z,55.20
2023-04-15T01:22:59.847Z,54.30
2023-04-15T01:23:09.889Z,52.10
2023-04-15T01:23:19.989Z,52.90
2023-04-15T01:23:30.028Z,53.90
2023-04-15T01:23:40.111Z,55.40
2023-04-15T01:23:50.166Z,54.00
2023-04-15T01:24:00.225Z,53.70
2023-04-15T01:24:10.300Z,52.70
2023-04-15T01:24:20.348Z,54.30
2023-04-15T01:24:30.553Z,55.30
2023-04-15T01:24:40.423Z,55.30
2023-04-15T01:24:50.481Z,55.10
2023-04-15T01:25:00.542Z,53.50
2023-04-15T01:25:10.607Z,54.80
2023-04-15T01:25:20.655Z,55.40
2023-04-15T01:25:30.709Z,56.20
2023-04-15T01:25:40.765Z,54.70
2023-04-15T01:25:50.808Z,52.70
2023-04-15T01:26:00.883Z,55.10
2023-04-15T01:26:10.944Z,55.90
2023-04-15T01:26:21.010Z,56.40
2023-04-15T01:26:31.047Z,55.40
2023-04-15T01:26:41.099Z,56.80
2023-04-15T01:26:51.180Z,58.10
2023-04-15T01:27:01.215Z,56.80
2023-04-15T01:27:11.252Z,56.40
2023-04-15T01:27:21.317Z,55.10
2023-04-15T01:27:31.363Z,55.50
2023-04-15T01:27:41.423Z,56.30
2023-04-15T01:27:51.474Z,55.30
2023-04-15T01:28:01.575Z,54.50
2023-04-15T01:28:11.650Z,55.50
2023-04-15T01:28:21.743Z,57.50
2023-04-15T01:28:31.776Z,58.40
2023-04-15T01:28:41.831Z,55.50
2023-04-15T01:28:51.900Z,55.30
2023-04-15T01:29:02.076Z,53.80
2023-04-15T01:29:12.067Z,54.00
2023-04-15T01:29:22.105Z,55.70
2023-04-15T01:29:32.169Z,57.30
2023-04-15T01:29:42.223Z,58.10
2023-04-15T01:29:52.275Z,58.40
2023-04-15T01:30:02.390Z,59.30
2023-04-15T01:30:12.449Z,58.80
2023-04-15T01:30:22.484Z,56.00
2023-04-15T01:30:32.536Z,55.30
2023-04-15T01:30:42.578Z,54.70
2023-04-15T01:30:52.621Z,55.90
2023-04-15T01:31:02.709Z,55.80
2023-04-15T01:31:12.775Z,57.60
2023-04-15T01:31:22.921Z,58.00
2023-04-15T01:31:32.994Z,57.60
2023-04-15T01:31:43.034Z,56.60
2023-04-15T01:31:53.138Z,56.00
2023-04-15T01:32:03.182Z,55.80
2023-04-15T01:32:13.248Z,54.40
2023-04-15T01:32:23.318Z,55.50
2023-04-15T01:32:33.369Z,54.90
2023-04-15T01:32:43.451Z,56.00
2023-04-15T01:32:53.472Z,55.00
2023-04-15T01:33:03.551Z,54.30
2023-04-15T01:33:13.581Z,54.50
2023-04-15T01:33:23.649Z,54.40
2023-04-15T01:33:33.721Z,54.60
2023-04-15T01:33:43.769Z,55.40
2023-04-15T01:33:53.777Z,55.60
2023-04-15T01:34:03.795Z,54.90
2023-04-15T01:34:13.819Z,55.10
2023-04-15T01:34:23.825Z,54.20
2023-04-15T01:34:35.730Z,57.30
2023-04-15T01:34:44.110Z,57.40
2023-04-15T01:34:54.118Z,58.70
2023-04-15T01:35:04.143Z,55.70
2023-04-15T01:35:14.155Z,53.80
2023-04-15T01:35:24.206Z,52.00
2023-04-15T01:35:34.209Z,54.00
2023-04-15T01:35:44.242Z,54.50
2023-04-15T01:35:54.247Z,57.00
2023-04-15T01:36:04.276Z,54.50
2023-04-15T01:36:14.292Z,54.60
2023-04-15T01:36:24.327Z,52.60
2023-04-15T01:36:34.346Z,55.40
2023-04-15T01:36:44.367Z,55.70
2023-04-15T01:36:54.373Z,55.90
2023-04-15T01:37:04.387Z,54.90
2023-04-15T01:37:14.443Z,54.00
2023-04-15T01:37:24.480Z,55.50
2023-04-15T01:37:34.497Z,56.90
2023-04-15T01:37:44.523Z,56.80
2023-04-15T01:37:54.531Z,58.00
2023-04-15T01:38:04.557Z,56.90
2023-04-15T01:38:14.570Z,55.70
2023-04-15T01:38:24.611Z,53.50
2023-04-15T01:38:34.627Z,54.40
2023-04-15T01:38:44.647Z,57.90
2023-04-15T01:38:54.670Z,59.00
2023-04-15T01:39:04.703Z,57.50
2023-04-15T01:39:14.717Z,55.40
2023-04-15T01:39:24.729Z,54.40
2023-04-15T01:39:34.760Z,55.00
2023-04-15T01:39:44.809Z,54.10
2023-04-15T01:39:54.814Z,55.40
2023-04-15T01:40:04.820Z,57.40
2023-04-15T01:40:14.866Z,56.80
2023-04-15T01:40:24.880Z,55.40
2023-04-15T01:40:34.914Z,53.10
2023-04-15T01:40:44.956Z,53.90
2023-04-15T01:40:54.982Z,55.10
2023-04-15T01:41:04.997Z,54.80
2023-04-15T01:41:15.020Z,55.60
2023-04-15T01:41:25.026Z,55.00
2023-04-15T01:41:35.033Z,56.50
2023-04-15T01:41:45.030Z,55.70
2023-04-15T01:41:55.055Z,56.50
2023-04-15T01:42:05.071Z,54.30
2023-04-15T01:42:15.109Z,54.40
2023-04-15T01:42:25.162Z,55.50
2023-04-15T01:42:35.164Z,57.30
2023-04-15T01:42:45.180Z,57.00
2023-04-15T01:42:55.224Z,57.30
2023-04-15T01:43:05.244Z,57.20
2023-04-15T01:43:15.262Z,57.30
2023-04-15T01:43:25.275Z,59.40
2023-04-15T01:43:35.282Z,58.50
2023-04-15T01:43:45.288Z,58.50
2023-04-15T01:43:55.309Z,56.50
2023-04-15T01:44:05.324Z,57.00
2023-04-15T01:44:15.356Z,54.90
2023-04-15T01:44:25.383Z,53.20
2023-04-15T01:44:35.397Z,52.60
2023-04-15T01:44:45.397Z,52.60
2023-04-15T01:44:55.423Z,54.00
2023-04-15T01:45:05.433Z,55.50
2023-04-15T01:45:15.446Z,59.20
2023-04-15T01:45:25.465Z,57.20
2023-04-15T01:45:35.468Z,55.70
2023-04-15T01:45:45.512Z,53.10
2023-04-15T01:45:55.539Z,53.80
2023-04-15T01:46:05.568Z,54.60
2023-04-15T01:46:15.588Z,54.40
2023-04-15T01:46:25.634Z,53.40
2023-04-15T01:46:35.690Z,53.30
2023-04-15T01:46:45.713Z,55.30
2023-04-15T01:46:55.723Z,56.50
2023-04-15T01:47:05.747Z,57.30
2023-04-15T01:47:15.740Z,58.60
2023-04-15T01:47:25.816Z,58.40
2023-04-15T01:47:35.839Z,57.10
2023-04-15T01:47:45.916Z,54.70
2023-04-15T01:47:55.945Z,56.30
2023-04-15T01:48:05.947Z,56.50
2023-04-15T01:48:15.965Z,57.20
2023-04-15T01:48:25.979Z,57.90
2023-04-15T01:48:36.021Z,59.00
2023-04-15T01:48:46.009Z,58.30
2023-04-15T01:48:56.022Z,58.70
2023-04-15T01:49:06.050Z,57.20
2023-04-15T01:49:16.083Z,58.80
2023-04-15T01:49:26.088Z,57.10
2023-04-15T01:49:36.098Z,60.30
2023-04-15T01:49:46.128Z,59.70
2023-04-15T01:49:56.145Z,60.90
2023-04-15T01:50:06.184Z,59.10
2023-04-15T01:50:16.202Z,59.30
2023-04-15T01:50:26.253Z,57.40
2023-04-15T01:50:36.268Z,57.10
2023-04-15T01:50:46.271Z,58.20
2023-04-15T01:50:56.302Z,59.20
2023-04-15T01:51:06.308Z,60.90
2023-04-15T01:51:16.311Z,58.10
2023-04-15T01:51:26.338Z,56.50
2023-04-15T01:51:36.336Z,53.90
2023-04-15T01:51:46.340Z,54.70
2023-04-15T01:51:56.357Z,56.50
2023-04-15T01:52:06.444Z,58.40
2023-04-15T01:52:16.469Z,59.10
2023-04-15T01:52:26.486Z,57.10
2023-04-15T01:52:36.517Z,56.30
2023-04-15T01:52:46.542Z,55.60
2023-04-15T01:52:56.575Z,58.20
2023-04-15T01:53:06.603Z,57.40
2023-04-15T01:53:16.628Z,58.30
2023-04-15T01:53:26.716Z,56.90
2023-04-15T01:53:36.739Z,56.20
2023-04-15T01:53:46.871Z,54.20
2023-04-15T01:53:57.029Z,54.20
2023-04-15T01:54:07.178Z,55.50
2023-04-15T01:54:17.306Z,57.90
2023-04-15T01:54:27.464Z,60.70
2023-04-15T01:54:37.622Z,61.50
2023-04-15T01:54:47.747Z,58.50
2023-04-15T01:54:57.908Z,58.80
2023-04-15T01:55:08.107Z,58.40
2023-04-15T01:55:18.095Z,60.20
2023-04-15T01:55:28.253Z,59.60
2023-04-15T01:55:38.392Z,57.90
2023-04-15T01:55:48.538Z,56.90
2023-04-15T01:55:58.678Z,58.50
2023-04-15T01:56:08.816Z,60.20
2023-04-15T01:56:18.957Z,61.10
2023-04-15T01:56:29.102Z,58.20
2023-04-15T01:56:39.257Z,56.30
2023-04-15T01:56:49.395Z,59.70
2023-04-15T01:56:59.531Z,58.70
2023-04-15T01:57:09.691Z,59.40
2023-04-15T01:57:19.839Z,57.80
2023-04-15T01:57:29.982Z,57.90
2023-04-15T01:57:40.135Z,57.90
2023-04-15T01:57:50.273Z,57.70
2023-04-15T01:58:00.424Z,57.00
2023-04-15T01:58:10.551Z,55.90
2023-04-15T01:58:20.702Z,56.10
2023-04-15T01:58:30.848Z,58.20
2023-04-15T01:58:40.983Z,59.80
2023-04-15T01:58:51.145Z,59.80
2023-04-15T01:59:01.642Z,58.40
2023-04-15T01:59:11.303Z,57.20
2023-04-15T01:59:21.444Z,57.30
2023-04-15T01:59:31.609Z,58.30
2023-04-15T01:59:41.726Z,59.80
2023-04-15T01:59:51.861Z,60.20
2023-04-15T02:00:02.026Z,62.80
2023-04-15T02:00:11.997Z,63.10
2023-04-15T02:00:22.143Z,65.00
2023-04-15T02:00:32.270Z,63.60
2023-04-15T02:00:42.413Z,63.20
2023-04-15T02:00:52.589Z,60.80
2023-04-15T02:01:02.685Z,58.20
2023-04-15T02:01:12.700Z,60.70
2023-04-15T02:01:22.739Z,62.50
2023-04-15T02:01:32.735Z,64.20
2023-04-15T02:01:42.773Z,62.10
2023-04-15T02:01:52.827Z,59.80
2023-04-15T02:02:02.875Z,58.00
2023-04-15T02:02:12.978Z,58.70
2023-04-15T02:02:23.092Z,60.80
2023-04-15T02:02:33.217Z,62.50
2023-04-15T02:02:43.270Z,61.00
2023-04-15T02:02:53.170Z,60.80
2023-04-15T02:03:03.245Z,59.00
2023-04-15T02:03:13.378Z,58.60
2023-04-15T02:03:23.494Z,57.50
2023-04-15T02:03:33.505Z,57.40
2023-04-15T02:03:43.621Z,57.90
2023-04-15T02:03:53.691Z,61.10
2023-04-15T02:04:03.708Z,61.20
2023-04-15T02:04:13.705Z,62.30
2023-04-15T02:04:23.747Z,62.20
2023-04-15T02:04:33.756Z,62.60
2023-04-15T02:04:43.769Z,60.80
2023-04-15T02:04:53.767Z,60.10
2023-04-15T02:05:03.802Z,59.20
2023-04-15T02:05:13.815Z,59.70
2023-04-15T02:05:23.834Z,57.60
2023-04-15T02:05:33.860Z,57.90
2023-04-15T02:05:43.893Z,60.00
2023-04-15T02:05:53.927Z,61.30
2023-04-15T02:06:03.954Z,62.80
2023-04-15T02:06:13.967Z,62.80
2023-04-15T02:06:23.983Z,63.30
2023-04-15T02:06:34.009Z,62.40
2023-04-15T02:06:44.016Z,59.60
2023-04-15T02:06:54.033Z,57.00
2023-04-15T02:07:04.108Z,56.20
2023-04-15T02:07:14.135Z,56.40
2023-04-15T02:07:24.150Z,63.60
2023-04-15T02:07:34.164Z,62.80
2023-04-15T02:07:44.187Z,63.10
2023-04-15T02:07:54.193Z,58.00
2023-04-15T02:08:04.209Z,58.50
2023-04-15T02:08:14.246Z,59.50
2023-04-15T02:08:24.248Z,58.40
2023-04-15T02:08:34.250Z,60.90
2023-04-15T02:08:44.260Z,59.80
2023-04-15T02:08:54.325Z,58.90
2023-04-15T02:09:04.329Z,57.80
2023-04-15T02:09:14.353Z,57.10
2023-04-15T02:09:24.358Z,59.10
2023-04-15T02:09:34.359Z,59.40